Time;durP1;ratioP1;P1;durP2;ratioP2;P2;SDS_P1;SDS_P2;PMS_P1;PMS_P2;Temp;Humidity;BMP_temperature;BMP_pressure;BME280_temperature;BME280_humidity;BME280_pressure;Samples;Min_cycle;Max_cycle;Signal;HPM_P1;HPM_P2
2022/08/03 00:02:14;;;;;;;21.00;5.43;;;;;;;20.98;49.06;99461.78;5052917;28;20455;-66
2022/08/03 00:04:42;;;;;;;15.25;5.32;;;;;;;21.02;48.79;99465.44;5052377;28;20110;-66
2022/08/03 00:07:09;;;;;;;16.63;6.00;;;;;;;21.05;48.78;99465.41;5052548;28;20511;-66
2022/08/03 00:09:36;;;;;;;13.25;5.00;;;;;;;21.16;48.36;99460.56;5052445;28;20507;-66
2022/08/03 00:12:06;;;;;;;14.00;4.88;;;;;;;21.26;47.90;99454.06;5052744;28;20067;-66
2022/08/03 00:14:33;;;;;;;14.55;4.53;;;;;;;21.34;47.63;99454.88;5052364;28;20064;-67
2022/08/03 00:17:00;;;;;;;20.88;5.63;;;;;;;21.37;47.56;99456.88;5052974;28;20143;-66
2022/08/03 00:19:27;;;;;;;23.58;5.68;;;;;;;21.29;47.95;99456.09;5051032;28;20147;-67
2022/08/03 00:21:54;;;;;;;14.15;5.35;;;;;;;21.27;48.16;99464.19;5052998;28;20053;-66
2022/08/03 00:24:20;;;;;;;21.58;4.68;;;;;;;21.23;48.30;99469.03;5052589;28;20052;-66
2022/08/03 00:26:47;;;;;;;17.13;5.05;;;;;;;21.20;48.49;99469.06;5052293;28;20045;-66
2022/08/03 00:29:19;;;;;;;22.48;5.47;;;;;;;21.15;48.28;99460.97;5052347;28;20048;-66
2022/08/03 00:31:46;;;;;;;13.40;4.85;;;;;;;21.18;48.14;99463.00;5052262;28;20044;-66
2022/08/03 00:34:25;;;;;;;15.05;5.88;;;;;;;21.09;48.46;99465.41;5052239;28;20505;-66
2022/08/03 00:37:11;;;;;;;15.40;4.85;;;;;;;21.01;48.58;99467.44;5032932;28;20061;-65
2022/08/03 00:39:39;;;;;;;14.48;5.20;;;;;;;21.02;48.41;99465.44;5032468;28;20052;-67
2022/08/03 00:42:06;;;;;;;15.50;4.75;;;;;;;21.07;48.32;99462.19;5035631;28;20457;-67
2022/08/03 00:44:41;;;;;;;17.13;5.50;;;;;;;21.10;48.32;99456.53;5052829;28;20503;-65
2022/08/03 00:47:09;;;;;;;11.35;4.88;;;;;;;20.99;48.45;99458.53;5056454;28;20055;-65
2022/08/03 00:49:38;;;;;;;11.48;4.72;;;;;;;21.01;48.47;99458.97;5056322;28;20403;-66
2022/08/03 00:52:10;;;;;;;17.52;6.13;;;;;;;21.04;48.27;99457.31;5056434;28;20080;-66
2022/08/03 00:54:37;;;;;;;11.00;5.38;;;;;;;21.05;48.19;99458.97;5054961;28;20057;-66
2022/08/03 00:57:05;;;;;;;16.35;4.70;;;;;;;21.06;48.19;99458.56;5056297;28;20132;-66
2022/08/03 00:59:32;;;;;;;10.98;4.60;;;;;;;20.95;48.70;99456.94;5055954;28;20052;-66
2022/08/03 01:01:59;;;;;;;19.23;4.88;;;;;;;20.77;48.99;99451.25;5054608;28;20053;-65
2022/08/03 01:04:26;;;;;;;18.63;5.30;;;;;;;20.79;49.20;99456.50;5035696;28;20148;-66
2022/08/03 01:07:16;;;;;;;12.55;4.72;;;;;;;20.70;49.46;99456.09;5036214;28;20049;-66
2022/08/03 01:10:11;;;;;;;12.73;4.72;;;;;;;20.66;49.59;99449.63;5035758;28;20076;-66
2022/08/03 01:12:47;;;;;;;8.38;4.60;;;;;;;20.70;49.36;99447.59;5037992;28;20049;-66
2022/08/03 01:15:45;;;;;;;15.35;4.60;;;;;;;20.71;49.27;99457.69;5055899;28;20376;-66
2022/08/03 01:18:21;;;;;;;10.48;4.00;;;;;;;20.67;49.52;99454.06;5055888;28;20057;-66
2022/08/03 01:20:54;;;;;;;17.83;5.00;;;;;;;20.68;49.69;99456.47;5054877;28;20061;-66
2022/08/03 01:23:54;;;;;;;10.82;5.50;;;;;;;20.74;49.29;99448.41;5056014;28;20132;-66
2022/08/03 01:26:24;;;;;;;11.57;4.50;;;;;;;20.78;49.20;99449.22;5055706;28;20053;-66
2022/08/03 01:29:20;;;;;;;12.88;4.90;;;;;;;20.82;49.00;99448.03;5055875;28;20068;-66
2022/08/03 01:32:00;;;;;;;11.82;4.50;;;;;;;20.83;49.14;99443.97;5055717;28;20052;-67
2022/08/03 01:35:01;;;;;;;14.93;4.50;;;;;;;20.85;48.98;99443.56;5055255;28;20186;-66
2022/08/03 01:37:38;;;;;;;19.13;5.10;;;;;;;20.87;49.01;99444.78;5055413;28;20049;-66
2022/08/03 01:40:08;;;;;;;8.35;4.13;;;;;;;20.87;49.10;99458.13;5055482;28;20056;-66
2022/08/03 01:42:38;;;;;;;8.25;4.80;;;;;;;20.89;48.86;99450.84;5055431;28;20507;-66
2022/08/03 01:45:09;;;;;;;12.80;4.93;;;;;;;20.90;48.91;99452.44;5055484;28;20052;-66
2022/08/03 01:47:38;;;;;;;12.45;5.88;;;;;;;20.94;49.02;99449.63;5055585;28;20060;-66
2022/08/03 01:50:07;;;;;;;10.45;4.35;;;;;;;20.96;49.09;99458.56;5055234;28;20049;-67
2022/08/03 01:52:39;;;;;;;8.90;4.60;;;;;;;20.96;49.18;99458.56;5041868;28;20059;-66
2022/08/03 01:55:10;;;;;;;17.45;4.65;;;;;;;20.95;49.10;99448.44;5033415;28;20049;-66
2022/08/03 01:57:39;;;;;;;20.55;5.47;;;;;;;20.94;49.12;99453.28;5034898;28;20416;-66
2022/08/03 02:00:27;;;;;;;21.73;5.20;;;;;;;20.91;49.27;99467.41;5035478;28;20488;-66
2022/08/03 02:02:55;;;;;;;18.88;6.15;;;;;;;20.89;49.43;99467.00;5034666;28;20526;-66
2022/08/03 02:05:23;;;;;;;17.90;4.50;;;;;;;20.80;49.88;99463.75;5033587;28;20052;-66
2022/08/03 02:07:51;;;;;;;17.20;5.07;;;;;;;20.83;49.90;99462.94;5034928;28;20064;-66
2022/08/03 02:10:20;;;;;;;16.70;5.32;;;;;;;20.87;49.71;99473.06;5034790;28;20049;-66
2022/08/03 02:13:02;;;;;;;19.40;5.22;;;;;;;20.82;49.92;99472.66;5040138;28;20045;-67
2022/08/03 02:15:32;;;;;;;16.10;5.22;;;;;;;20.82;49.72;99467.00;5054724;28;20412;-66
2022/08/03 02:18:04;;;;;;;21.55;6.15;;;;;;;20.85;49.77;99477.50;5055009;28;20052;-66
2022/08/03 02:20:35;;;;;;;8.57;5.10;;;;;;;20.80;49.82;99473.06;5054736;28;20088;-66
2022/08/03 02:23:02;;;;;;;11.77;5.00;;;;;;;20.81;49.74;99471.03;5054670;28;20060;-66
2022/08/03 02:25:31;;;;;;;10.65;5.40;;;;;;;20.82;49.80;99475.47;5054717;28;20048;-66
2022/08/03 02:28:05;;;;;;;13.35;5.20;;;;;;;20.84;49.82;99476.69;5054357;28;20049;-67
2022/08/03 02:30:37;;;;;;;16.33;4.63;;;;;;;20.86;49.76;99473.44;5054486;28;20063;-66
2022/08/03 02:33:09;;;;;;;8.48;4.13;;;;;;;20.88;49.68;99473.88;5054157;28;20422;-67
2022/08/03 02:35:36;;;;;;;14.80;4.80;;;;;;;20.92;49.49;99483.16;5054395;28;20136;-66
2022/08/03 02:38:06;;;;;;;18.30;5.47;;;;;;;20.94;49.54;99475.91;5054057;28;20499;-66
2022/08/03 02:40:35;;;;;;;17.23;5.40;;;;;;;20.96;49.58;99487.63;5051943;28;20053;-66
2022/08/03 02:43:07;;;;;;;11.57;4.55;;;;;;;21.00;49.38;99479.16;5034095;28;20041;-67
2022/08/03 02:45:37;;;;;;;10.93;4.60;;;;;;;21.04;49.38;99485.63;5034269;28;20038;-67
2022/08/03 02:48:14;;;;;;;11.50;4.70;;;;;;;21.04;49.40;99477.13;5032627;28;20041;-67
2022/08/03 02:50:43;;;;;;;9.07;4.97;;;;;;;21.04;49.19;99468.66;5034230;28;20049;-67
2022/08/03 02:53:12;;;;;;;15.43;4.80;;;;;;;21.06;49.38;99481.19;5033882;28;20056;-66
2022/08/03 02:55:41;;;;;;;16.13;4.75;;;;;;;21.08;49.44;99480.78;5034134;28;20041;-66
2022/08/03 02:58:12;;;;;;;12.30;5.47;;;;;;;21.08;49.43;99481.56;5034068;28;20053;-66
2022/08/03 03:00:42;;;;;;;12.55;4.50;;;;;;;21.04;49.47;99477.13;5033960;28;20045;-66
2022/08/03 03:03:11;;;;;;;12.35;4.90;;;;;;;21.08;49.41;99480.78;5033701;28;20080;-66
2022/08/03 03:05:40;;;;;;;22.40;5.28;;;;;;;21.13;49.51;99484.00;5034189;28;20051;-66
2022/08/03 03:08:23;;;;;;;11.52;5.50;;;;;;;21.16;49.44;99474.72;5032026;28;20049;-66
2022/08/03 03:10:58;;;;;;;8.25;4.75;;;;;;;21.18;49.45;99485.63;5033784;28;20045;-67
2022/08/03 03:13:27;;;;;;;12.00;4.60;;;;;;;21.20;49.49;99486.81;5041906;28;20415;-66
2022/08/03 03:15:58;;;;;;;13.30;5.15;;;;;;;21.20;49.82;99488.88;5053231;28;20045;-66
2022/08/03 03:18:27;;;;;;;10.43;4.75;;;;;;;21.22;49.29;99492.91;5053416;28;20530;-66
2022/08/03 03:20:56;;;;;;;14.95;5.18;;;;;;;21.23;49.51;99499.38;5053568;28;20140;-66
2022/08/03 03:23:25;;;;;;;16.87;5.57;;;;;;;21.26;49.46;99487.25;5053805;28;20048;-66
2022/08/03 03:25:54;;;;;;;20.63;5.57;;;;;;;21.30;49.66;99488.03;5053195;28;20049;-65
2022/08/03 03:28:23;;;;;;;7.32;4.63;;;;;;;21.35;49.28;99485.59;5053297;28;20448;-66
2022/08/03 03:30:51;;;;;;;14.73;5.32;;;;;;;21.49;49.23;99484.78;5053385;28;20416;-67
2022/08/03 03:33:20;;;;;;;8.13;4.60;;;;;;;21.64;48.79;99489.19;5053230;28;20041;-66
2022/08/03 03:35:48;;;;;;;10.13;4.93;;;;;;;21.81;48.69;99496.88;5053369;28;20041;-66
2022/08/03 03:38:15;;;;;;;11.05;4.68;;;;;;;21.96;48.35;99495.63;5033283;28;20045;-67
2022/08/03 03:40:42;;;;;;;10.23;5.20;;;;;;;22.08;48.37;99497.22;5033576;28;20057;-66
2022/08/03 03:43:11;;;;;;;11.80;5.53;;;;;;;22.11;48.10;99500.00;5032818;28;20045;-67
2022/08/03 03:45:41;;;;;;;50.30;19.95;;;;;;;22.09;48.13;99499.63;5033184;28;20447;-68
2022/08/03 03:48:08;;;;;;;13.82;7.07;;;;;;;22.04;48.18;99494.38;5032745;28;20500;-66
2022/08/03 03:50:36;;;;;;;15.57;4.97;;;;;;;22.00;48.27;99499.25;5033160;28;20053;-66
2022/08/03 03:53:03;;;;;;;17.92;5.63;;;;;;;22.01;48.31;99492.38;5031899;28;20049;-66
2022/08/03 03:55:39;;;;;;;12.27;5.63;;;;;;;22.04;48.18;99500.06;5033057;28;20532;-66
2022/08/03 03:58:25;;;;;;;11.80;4.65;;;;;;;22.11;48.16;99504.88;5033789;28;20116;-66
2022/08/03 04:00:52;;;;;;;8.88;5.30;;;;;;;22.16;48.11;99496.75;5032708;28;20463;-66
2022/08/03 04:03:19;;;;;;;12.68;6.22;;;;;;;22.21;48.10;99499.19;5032651;28;20199;-66
2022/08/03 04:11:40;;;;;;;11.88;5.50;;;;;;;22.46;47.78;99501.88;5032761;28;20053;-66
2022/08/03 04:14:15;;;;;;;13.43;5.35;;;;;;;22.55;47.57;99511.59;5046719;28;20140;-66
2022/08/03 04:16:47;;;;;;;11.15;5.80;;;;;;;22.64;47.49;99506.25;5052389;28;20045;-66
2022/08/03 04:19:21;;;;;;;12.30;5.10;;;;;;;22.72;47.31;99505.00;5052192;28;20053;-66
2022/08/03 04:21:51;;;;;;;11.70;4.85;;;;;;;22.82;47.15;99515.47;5052262;28;20061;-66
2022/08/03 04:24:25;;;;;;;15.82;5.07;;;;;;;22.87;47.14;99520.72;5052164;28;20057;-68
2022/08/03 04:26:54;;;;;;;8.88;4.78;;;;;;;22.95;46.94;99508.06;5052233;28;20048;-66
2022/08/03 04:29:24;;;;;;;16.83;4.68;;;;;;;23.04;46.95;99507.63;5052412;28;20056;-66
2022/08/03 04:31:53;;;;;;;9.23;4.60;;;;;;;23.13;46.96;99514.44;5052320;28;20048;-66
2022/08/03 04:34:20;;;;;;;10.80;5.10;;;;;;;23.16;47.26;99518.47;5052146;28;20048;-67
2022/08/03 04:36:51;;;;;;;11.73;5.28;;;;;;;23.21;47.26;99515.19;5052445;28;20399;-66
2022/08/03 04:39:28;;;;;;;10.57;4.82;;;;;;;23.26;46.77;99506.25;5052073;28;20526;-66
2022/08/03 04:41:58;;;;;;;15.30;6.88;;;;;;;23.33;46.56;99514.72;5052562;28;20048;-65
2022/08/03 04:44:45;;;;;;;20.20;4.40;;;;;;;23.39;46.14;99510.22;5052338;28;20068;-66
2022/08/03 04:47:12;;;;;;;9.35;4.65;;;;;;;23.47;46.02;99513.78;5052076;28;20060;-66
2022/08/03 04:49:39;;;;;;;8.70;4.65;;;;;;;23.54;46.04;99513.72;5052042;28;20052;-66
2022/08/03 04:52:08;;;;;;;8.25;5.32;;;;;;;23.60;45.75;99512.03;5042304;28;20046;-71
2022/08/03 04:54:40;;;;;;;11.43;4.40;;;;;;;23.69;45.84;99516.00;5032107;28;20052;-72
2022/08/03 04:57:08;;;;;;;10.80;4.47;;;;;;;23.75;45.49;99514.31;5032583;28;20055;-72
2022/08/03 04:59:51;;;;;;;18.75;6.32;;;;;;;23.87;45.09;99518.66;5032122;28;20111;-71
2022/08/03 05:02:23;;;;;;;12.45;5.05;;;;;;;23.88;45.07;99511.72;5032219;28;20059;-72
2022/08/03 05:04:50;;;;;;;14.98;5.03;;;;;;;23.96;45.11;99513.31;5031785;28;20057;-71
2022/08/03 05:07:18;;;;;;;7.35;4.18;;;;;;;24.04;44.76;99514.84;5032188;28;20045;-71
2022/08/03 05:09:51;;;;;;;7.97;5.15;;;;;;;24.11;44.89;99511.91;5045640;28;20558;-72
2022/08/03 05:12:29;;;;;;;8.43;4.70;;;;;;;24.21;45.00;99510.97;5038750;28;20049;-72
2022/08/03 05:15:00;;;;;;;5.93;4.38;;;;;;;24.35;44.65;99505.13;5051887;28;20049;-73
2022/08/03 05:17:29;;;;;;;12.48;4.68;;;;;;;24.48;44.46;99517.56;5051904;28;20052;-72
2022/08/03 05:19:56;;;;;;;12.07;4.50;;;;;;;24.60;43.94;99520.63;5051877;28;20056;-72
2022/08/03 05:22:23;;;;;;;12.70;4.53;;;;;;;24.69;43.42;99525.84;5052191;28;20057;-72
2022/08/03 05:24:50;;;;;;;15.15;4.72;;;;;;;24.82;43.34;99516.28;5051670;28;20064;-72
2022/08/03 05:27:18;;;;;;;14.32;4.88;;;;;;;25.05;42.52;99524.06;5052310;28;20484;-72
2022/08/03 05:29:46;;;;;;;12.25;5.57;;;;;;;25.28;41.94;99521.25;5051590;28;20044;-72
2022/08/03 05:32:13;;;;;;;14.75;4.80;;;;;;;25.50;41.35;99522.53;5054713;28;20052;-72
2022/08/03 05:34:40;;;;;;;10.73;4.88;;;;;;;25.76;40.82;99518.00;5055560;28;20454;-72
2022/08/03 05:37:07;;;;;;;12.25;4.43;;;;;;;26.03;40.41;99518.75;5056008;28;20140;-74
2022/08/03 05:39:34;;;;;;;13.75;4.57;;;;;;;26.27;40.60;99521.09;5055180;28;20123;-73
2022/08/03 05:42:01;;;;;;;7.95;4.05;;;;;;;26.50;39.79;99523.06;5039941;28;20054;-73
2022/08/03 05:44:30;;;;;;;8.63;3.58;;;;;;;26.75;39.47;99512.75;5035461;28;20053;-72
2022/08/03 05:46:58;;;;;;;;;;;;;;;26.95;39.43;99520.44;5035792;28;20095;-72
2022/08/03 05:49:25;;;;;;;8.07;4.30;;;;;;;27.30;38.72;99526.16;5035058;28;19925;-71
2022/08/03 05:51:52;;;;;;;7.53;4.18;;;;;;;27.70;38.06;99526.75;5035235;28;20056;-72
2022/08/03 05:54:37;;;;;;;10.85;4.20;;;;;;;28.22;37.32;99524.56;5034803;28;20046;-71
2022/08/03 05:57:24;;;;;;;7.53;4.38;;;;;;;28.51;36.30;99525.38;5035208;28;20046;-71
2022/08/03 05:59:51;;;;;;;15.33;5.30;;;;;;;28.90;35.24;99524.97;5034900;28;20111;-71
2022/08/03 06:02:25;;;;;;;9.00;4.00;;;;;;;29.92;33.15;99528.16;5035370;28;20458;-71
2022/08/03 06:04:54;;;;;;;9.20;4.63;;;;;;;32.14;29.75;99519.31;5034723;28;20061;-72
2022/08/03 06:07:21;;;;;;;14.93;4.03;;;;;;;33.43;27.76;99523.91;5035130;28;20046;-70
2022/08/03 06:09:48;;;;;;;19.48;4.85;;;;;;;32.81;28.08;99517.84;5034528;28;20053;-72
2022/08/03 06:12:36;;;;;;;7.70;3.97;;;;;;;34.25;26.18;99527.09;5034742;28;20091;-73
2022/08/03 06:18:07;;;;;;;10.60;4.25;;;;;;;33.47;27.35;99525.34;5034482;28;20037;-67
2022/08/03 06:20:34;;;;;;;15.07;4.57;;;;;;;32.79;27.62;99520.41;5035046;28;20057;-67
2022/08/03 06:23:01;;;;;;;23.83;4.65;;;;;;;32.05;28.34;99522.16;5034574;28;20049;-68
2022/08/03 06:25:29;;;;;;;9.00;4.03;;;;;;;31.29;29.41;99520.06;5034550;28;20041;-67
2022/08/03 06:27:56;;;;;;;12.07;4.32;;;;;;;30.58;29.90;99523.31;5034520;28;20072;-67
2022/08/03 06:30:23;;;;;;;18.00;4.38;;;;;;;29.99;30.21;99530.75;5034162;28;20052;-66
2022/08/03 06:32:50;;;;;;;15.10;7.05;;;;;;;29.65;31.31;99536.47;5034199;28;20485;-67
2022/08/03 06:35:18;;;;;;;14.73;4.28;;;;;;;29.43;31.46;99535.53;5034243;28;20045;-67
2022/08/03 06:37:48;;;;;;;20.80;4.00;;;;;;;29.25;31.20;99534.53;5034033;28;20045;-67
2022/08/03 06:40:17;;;;;;;12.32;4.47;;;;;;;29.26;31.32;99531.22;5034391;28;20068;-67
2022/08/03 06:42:50;;;;;;;18.15;4.07;;;;;;;29.60;30.37;99533.38;5047714;28;20381;-67
2022/08/03 06:45:17;;;;;;;15.15;4.53;;;;;;;30.26;29.65;99533.13;5053748;28;20048;-67
2022/08/03 06:47:44;;;;;;;15.18;4.00;;;;;;;30.37;29.27;99536.38;5054183;28;20081;-67
2022/08/03 06:50:11;;;;;;;10.02;3.30;;;;;;;30.20;29.19;99545.66;5054078;28;20511;-67
2022/08/03 06:52:44;;;;;;;4.70;2.85;;;;;;;29.94;29.21;99536.28;5054078;28;20053;-67
2022/08/03 06:55:11;;;;;;;16.42;4.10;;;;;;;29.27;30.04;99534.88;5054262;28;20053;-67
2022/08/03 06:57:38;;;;;;;9.30;3.13;;;;;;;28.73;30.81;99543.50;5054065;28;20041;-67
2022/08/03 07:00:05;;;;;;;20.38;7.68;;;;;;;29.71;29.72;99539.56;5054182;28;20523;-67
2022/08/03 07:02:38;;;;;;;14.93;3.28;;;;;;;32.42;25.80;99539.03;5054050;28;20087;-67
2022/08/03 07:05:07;;;;;;;4.10;2.70;;;;;;;33.08;24.95;99529.31;5054123;28;20554;-67
2022/08/03 07:07:34;;;;;;;9.77;4.03;;;;;;;32.20;25.93;99529.72;5053717;28;20056;-67
2022/08/03 07:10:01;;;;;;;13.77;3.50;;;;;;;31.67;27.07;99534.88;5038793;28;20056;-67
2022/08/03 07:12:30;;;;;;;9.73;2.83;;;;;;;31.83;26.66;99533.03;5039119;28;20053;-65
2022/08/03 07:14:59;;;;;;;11.13;2.73;;;;;;;32.93;25.24;99537.06;5047783;28;20051;-64
2022/08/03 07:17:35;;;;;;;6.90;2.70;;;;;;;34.31;24.20;99534.56;5053274;28;20494;-66
2022/08/03 07:20:05;;;;;;;8.73;2.90;;;;;;;36.09;22.13;99537.19;5033870;28;20053;-65
2022/08/03 07:22:33;;;;;;;8.02;4.80;;;;;;;38.37;19.63;99532.97;5052026;28;20048;-65
2022/08/03 07:25:00;;;;;;;13.52;3.78;;;;;;;39.98;18.24;99555.13;5053832;28;20423;-65
2022/08/03 07:27:29;;;;;;;4.10;2.50;;;;;;;41.89;15.94;99547.84;5053685;28;20132;-65
2022/08/03 07:29:57;;;;;;;6.32;2.72;;;;;;;42.67;14.51;99548.53;5051350;28;20045;-65
2022/08/03 07:32:24;;;;;;;;;;;;;;;40.99;15.30;99545.41;5052237;28;20140;-65
2022/08/03 07:34:52;;;;;;;5.68;2.90;;;;;;;40.06;16.30;99549.53;5069666;28;19928;-65
2022/08/03 07:37:25;;;;;;;6.40;2.50;;;;;;;37.57;18.32;99545.13;5032884;28;20140;-65
2022/08/03 07:39:52;;;;;;;18.70;2.83;;;;;;;36.93;19.36;99548.50;5052633;28;20045;-65
2022/08/03 07:42:19;;;;;;;7.80;2.90;;;;;;;36.14;19.72;99547.28;5052454;28;20049;-66
2022/08/03 07:44:46;;;;;;;8.43;2.60;;;;;;;37.38;18.70;99543.94;5060492;28;20053;-64
2022/08/03 07:47:27;;;;;;;5.18;2.40;;;;;;;38.43;17.37;99543.28;5041848;28;20047;-64
2022/08/03 07:50:01;;;;;;;7.85;2.60;;;;;;;39.61;17.22;99548.81;5050561;28;20484;-64
2022/08/03 07:52:46;;;;;;;3.15;2.38;;;;;;;44.46;13.22;99554.56;5053593;28;20094;-64
2022/08/03 07:55:17;;;;;;;5.18;2.95;;;;;;;47.33;10.89;99546.81;5051971;28;20036;-64
2022/08/03 07:57:44;;;;;;;8.85;2.75;;;;;;;47.97;10.38;99552.38;5054702;28;20092;-66
2022/08/03 08:00:15;;;;;;;17.13;3.53;;;;;;;48.53;9.58;99558.56;5055019;28;20123;-66
2022/08/03 08:02:43;;;;;;;13.02;3.47;;;;;;;48.45;9.52;99560.75;5060427;28;20041;-65
2022/08/03 08:05:15;;;;;;;6.88;2.70;;;;;;;48.11;9.46;99557.47;5050079;28;20048;-66
2022/08/03 08:07:42;;;;;;;16.30;3.63;;;;;;;49.24;9.04;99575.66;5050719;28;20041;-66
2022/08/03 08:10:16;;;;;;;5.78;2.60;;;;;;;50.43;7.79;99553.81;5051874;28;20052;-64
2022/08/03 08:12:43;;;;;;;18.35;3.78;;;;;;;51.77;7.29;99550.41;5054358;28;20045;-66
2022/08/03 08:15:10;;;;;;;10.00;2.58;;;;;;;51.83;7.22;99565.75;5063549;28;20424;-66
2022/08/03 08:17:48;;;;;;;8.23;2.80;;;;;;;52.26;6.77;99558.81;5050705;28;20045;-66
2022/08/03 08:20:19;;;;;;;11.55;2.80;;;;;;;52.60;6.75;99555.59;5056731;28;20037;-66
2022/08/03 08:23:05;;;;;;;3.40;2.38;;;;;;;49.93;8.22;99552.28;5054935;28;20071;-66
2022/08/03 08:25:52;;;;;;;4.60;2.83;;;;;;;47.83;9.71;99549.59;5052570;28;20507;-65
2022/08/03 08:28:20;;;;;;;7.32;2.70;;;;;;;51.21;7.64;99557.59;5052239;28;20389;-65
2022/08/03 08:31:00;;;;;;;6.13;2.88;;;;;;;49.77;8.31;99562.69;5052231;28;20527;-66
2022/08/03 08:33:27;;;;;;;11.43;3.40;;;;;;;47.20;10.04;99558.75;5052616;28;20045;-65
2022/08/03 08:36:14;;;;;;;3.90;2.40;;;;;;;44.60;11.77;99553.16;5052017;28;20140;-65
2022/08/03 08:38:43;;;;;;;9.57;3.67;;;;;;;42.75;12.93;99552.44;5052171;28;20045;-64
2022/08/03 08:41:11;;;;;;;9.77;5.90;;;;;;;44.48;11.92;99557.69;5052652;28;20057;-65
2022/08/03 08:43:39;;;;;;;9.05;2.70;;;;;;;42.06;13.72;99556.47;5052297;28;20055;-65
2022/08/03 08:46:07;;;;;;;6.47;3.45;;;;;;;43.35;12.93;99544.06;5052145;28;20434;-65
2022/08/03 08:48:39;;;;;;;4.30;2.75;;;;;;;47.48;10.11;99546.81;5052337;28;20110;-66
2022/08/03 08:51:07;;;;;;;5.47;3.33;;;;;;;50.60;8.41;99547.84;5052192;28;20503;-66
2022/08/03 08:53:37;;;;;;;10.40;3.58;;;;;;;52.18;7.65;99554.44;5051837;28;20056;-66
2022/08/03 08:56:06;;;;;;;4.75;2.80;;;;;;;54.18;6.45;99551.13;5052305;28;20048;-66
2022/08/03 08:58:39;;;;;;;18.20;3.75;;;;;;;55.66;5.82;99553.88;5056194;28;20470;-66
2022/08/03 09:01:07;;;;;;;5.68;3.30;;;;;;;55.36;5.88;99553.44;5050475;28;20045;-66
2022/08/03 09:03:34;;;;;;;8.25;2.80;;;;;;;55.65;5.13;99547.13;5050233;28;20083;-66
2022/08/03 09:06:02;;;;;;;6.57;3.25;;;;;;;56.55;4.68;99555.13;5052853;28;20049;-66
2022/08/03 09:08:31;;;;;;;7.82;2.97;;;;;;;57.07;4.87;99561.31;5056219;28;20140;-66
2022/08/03 09:10:58;;;;;;;40.10;4.82;;;;;;;56.08;5.06;99554.41;5046774;28;20091;-67
2022/08/03 09:13:26;;;;;;;19.25;3.97;;;;;;;56.57;4.76;99559.03;5035731;28;20050;-66
2022/08/03 09:16:13;;;;;;;4.43;3.22;;;;;;;56.77;4.52;99547.53;5049932;28;20052;-66
2022/08/03 09:18:45;;;;;;;9.43;3.45;;;;;;;57.41;4.13;99545.38;5065273;28;20055;-67
2022/08/03 09:21:17;;;;;;;5.90;3.30;;;;;;;58.40;3.81;99560.72;5058334;28;20036;-66
2022/08/03 09:23:59;;;;;;;20.95;4.57;;;;;;;58.24;4.03;99559.84;5062643;28;20396;-66
2022/08/03 09:26:32;;;;;;;9.80;3.28;;;;;;;57.26;4.07;99566.19;5069492;28;20053;-66
2022/08/03 09:29:08;;;;;;;21.05;4.47;;;;;;;56.73;4.63;99559.25;5062586;28;20036;-66
2022/08/03 09:31:45;;;;;;;9.88;4.70;;;;;;;57.85;4.68;99559.91;5075787;28;20056;-65
2022/08/03 09:34:16;;;;;;;19.77;4.05;;;;;;;58.76;4.29;99559.66;5061140;28;20049;-64
2022/08/03 09:36:45;;;;;;;10.38;4.45;;;;;;;59.35;3.87;99564.25;5055573;28;20458;-65
2022/08/03 09:39:18;;;;;;;8.38;3.50;;;;;;;58.89;3.38;99570.06;5058668;28;20045;-67
2022/08/03 09:42:12;;;;;;;8.07;2.90;;;;;;;56.19;4.68;99564.78;5049236;28;20061;-66
2022/08/03 09:44:43;;;;;;;14.80;4.57;;;;;;;51.50;7.11;99540.75;5054378;28;20055;-65
2022/08/03 09:47:15;;;;;;;7.50;3.15;;;;;;;46.70;10.02;99536.72;5053954;28;20450;-66
2022/08/03 09:50:05;;;;;;;7.60;2.92;;;;;;;43.62;12.02;99545.75;5063946;28;20053;-67
2022/08/03 09:52:34;;;;;;;17.08;3.80;;;;;;;41.17;13.98;99533.09;5075060;28;20151;-67
2022/08/03 09:55:19;;;;;;;6.15;2.75;;;;;;;39.40;15.27;99533.72;5054558;28;20053;-67
2022/08/03 09:58:08;;;;;;;5.32;2.95;;;;;;;37.46;17.37;99534.22;5055719;28;20053;-66
2022/08/03 10:00:52;;;;;;;13.43;7.60;;;;;;;36.07;18.48;99530.31;5055460;28;20053;-66
2022/08/03 10:03:23;;;;;;;7.45;3.28;;;;;;;35.60;19.43;99540.13;5060261;28;20090;-66
2022/08/03 10:05:50;;;;;;;5.88;2.63;;;;;;;35.32;19.73;99536.00;5072140;28;20052;-65
2022/08/03 10:08:22;;;;;;;5.70;2.65;;;;;;;35.10;20.15;99545.09;5051540;28;20076;-66
2022/08/03 10:10:54;;;;;;;12.20;3.43;;;;;;;34.71;20.31;99542.75;5047448;28;20044;-65
2022/08/03 10:13:22;;;;;;;6.22;3.58;;;;;;;34.15;20.96;99551.53;5054529;28;20473;-66
2022/08/03 10:15:49;;;;;;;9.00;3.30;;;;;;;33.57;21.82;99533.94;5060593;28;20520;-67
2022/08/03 10:18:38;;;;;;;12.25;3.58;;;;;;;33.37;21.93;99537.38;5058449;28;20293;-66
2022/08/03 10:21:09;;;;;;;4.22;2.80;;;;;;;33.18;22.28;99536.63;5051920;28;20053;-66
2022/08/03 10:23:37;;;;;;;4.38;2.78;;;;;;;33.10;22.49;99541.16;5050926;28;20055;-66
2022/08/03 10:26:06;;;;;;;6.82;2.78;;;;;;;32.98;22.58;99541.38;5052903;28;20056;-66
2022/08/03 10:28:36;;;;;;;5.95;2.83;;;;;;;32.85;22.88;99553.03;5053035;28;20128;-66
2022/08/03 10:31:11;;;;;;;7.13;3.17;;;;;;;32.61;23.36;99545.56;5054088;28;20041;-65
2022/08/03 10:33:42;;;;;;;;;;;;;;;32.10;24.00;99542.50;5072354;28;20140;-67
2022/08/03 10:36:23;;;;;;;8.98;4.75;;;;;;;32.00;24.22;99540.88;5073901;28;19931;-66
2022/08/03 10:38:51;;;;;;;10.77;3.20;;;;;;;32.08;24.10;99539.28;5071417;28;20119;-67
2022/08/03 10:41:19;;;;;;;;;;;;;;;31.97;24.23;99546.81;5074710;28;20430;-67
2022/08/03 10:43:57;;;;;;;7.38;3.10;;;;;;;31.65;24.66;99533.78;5074023;28;20284;-68
2022/08/03 10:46:26;;;;;;;6.95;3.60;;;;;;;31.42;24.81;99542.97;5064027;28;20069;-67
2022/08/03 10:48:55;;;;;;;5.57;3.28;;;;;;;31.41;24.59;99547.13;5062343;28;20518;-66
2022/08/03 10:51:22;;;;;;;4.40;2.92;;;;;;;31.44;24.88;99540.41;5053201;28;20073;-66
2022/08/03 10:53:49;;;;;;;17.70;3.15;;;;;;;31.54;24.83;99544.91;5053258;28;20045;-65
2022/08/03 10:59:58;;;;;;;4.95;3.20;;;;;;;31.57;24.96;99547.66;5058399;28;20048;-65
2022/08/03 11:03:00;;;;;;;13.40;3.70;;;;;;;31.70;24.93;99542.56;5033837;28;20061;-66
2022/08/03 11:05:28;;;;;;;14.40;3.92;;;;;;;31.81;24.88;99547.84;5053839;28;20135;-65
2022/08/03 11:08:31;;;;;;;11.73;3.35;;;;;;;31.86;24.85;99544.41;5069911;28;20064;-65
2022/08/03 11:11:27;;;;;;;17.17;3.25;;;;;;;32.00;24.62;99543.75;5065766;28;20063;-66
2022/08/03 11:14:02;;;;;;;9.30;2.90;;;;;;;31.89;24.83;99543.44;5051217;28;20063;-65
2022/08/03 11:16:35;;;;;;;14.65;5.32;;;;;;;31.86;25.55;99555.09;5051282;28;20496;-66
2022/08/03 11:19:04;;;;;;;13.57;3.50;;;;;;;31.65;25.34;99545.28;5052340;28;20519;-65
2022/08/03 11:21:49;;;;;;;13.93;4.55;;;;;;;31.40;25.56;99542.63;5051359;28;20496;-65
2022/08/03 11:24:35;;;;;;;9.15;3.05;;;;;;;31.17;25.76;99548.91;5054094;28;20138;-65
2022/08/03 11:27:18;;;;;;;5.80;3.60;;;;;;;31.06;25.47;99542.78;5056811;28;20074;-62
2022/08/03 11:30:00;;;;;;;5.57;3.30;;;;;;;31.01;26.13;99544.19;5052926;28;20079;-68
2022/08/03 11:32:36;;;;;;;5.45;2.92;;;;;;;30.97;26.25;99551.34;5044862;28;20144;-64
2022/08/03 11:35:15;;;;;;;8.77;3.53;;;;;;;30.92;26.37;99549.88;5051058;28;20503;-64
2022/08/03 11:37:57;;;;;;;12.23;3.38;;;;;;;30.94;26.07;99543.66;5053057;28;20071;-63
2022/08/03 11:40:47;;;;;;;8.75;3.30;;;;;;;31.12;26.02;99540.88;5061889;28;20044;-63
2022/08/03 11:43:20;;;;;;;9.60;3.10;;;;;;;31.09;26.31;99542.63;5069754;28;20123;-63
2022/08/03 11:46:00;;;;;;;8.95;3.40;;;;;;;31.04;26.16;99540.38;5037937;28;20080;-63
2022/08/03 11:48:32;;;;;;;4.78;3.28;;;;;;;30.94;26.57;99543.66;5052145;28;20041;-64
2022/08/03 11:51:00;;;;;;;4.97;3.20;;;;;;;30.82;26.59;99550.28;5057834;28;20056;-63
2022/08/03 11:53:30;;;;;;;9.40;3.20;;;;;;;30.76;26.52;99552.16;5056990;28;20527;-65
2022/08/03 11:56:03;;;;;;;13.43;3.67;;;;;;;30.65;26.42;99543.13;5053061;28;20136;-68
2022/08/03 11:58:47;;;;;;;22.67;5.32;;;;;;;30.66;26.50;99548.41;5059703;28;20044;-68
2022/08/03 12:01:34;;;;;;;10.25;3.40;;;;;;;30.76;26.22;99544.34;5056453;28;20103;-68
2022/08/03 12:04:04;;;;;;;7.95;3.90;;;;;;;30.76;26.54;99547.22;5052579;28;20148;-69
2022/08/03 12:06:53;;;;;;;38.65;16.42;;;;;;;30.69;26.37;99540.91;5050685;28;20547;-67
2022/08/03 12:09:20;;;;;;;;;;;;;;;30.51;26.52;99541.59;5059059;28;20090;-68